Terminal Aerodrome Forecast
Issued by NWS Kansas City/Pleasant Hill, MO

Home | Current Version | Previous Version | Text Only | Print | Product List | Glossary On
Versions: 1 2 3 4 5 6 7 8 9 10 11 12 13 14 15 16 17 18 19 20 21 22 23
000
FTUS43 KEAX 172300
TAFMCI
TAF
KMCI 172332Z 1800/1824 11005KT P6SM SCT017
     FM180500 09005KT 4SM BR SCT015
     FM180800 09005KT 2SM BR OVC008
     FM181000 09004KT 1SM BR OVC004
     FM181400 09005KT 3SM BR OVC008
     FM181700 11008KT P6SM SCT020=

USA.gov is the U.S. government's official web portal to all federal, state and local government web resources and services.